sensor_id;sensor_type;location;lat;lon;timestamp;P1;durP1;ratioP1;P2;durP2;ratioP2
75990;SDS011;64673;52.276;10.560;2023-04-02T00:01:42;7.32;;;2.70;;
75990;SDS011;64673;52.276;10.560;2023-04-02T00:04:12;5.90;;;2.42;;
75990;SDS011;64673;52.276;10.560;2023-04-02T00:06:46;4.80;;;1.95;;
75990;SDS011;64673;52.276;10.560;2023-04-02T00:11:40;3.80;;;2.00;;
75990;SDS011;64673;52.276;10.560;2023-04-02T00:14:17;3.95;;;1.85;;
75990;SDS011;64673;52.276;10.560;2023-04-02T00:16:45;3.55;;;1.60;;
75990;SDS011;64673;52.276;10.560;2023-04-02T00:19:15;6.70;;;2.10;;
75990;SDS011;64673;52.276;10.560;2023-04-02T00:21:47;6.65;;;1.77;;
75990;SDS011;64673;52.276;10.560;2023-04-02T00:24:15;2.72;;;1.67;;
75990;SDS011;64673;52.276;10.560;2023-04-02T00:26:44;5.93;;;1.92;;
75990;SDS011;64673;52.276;10.560;2023-04-02T00:29:12;5.28;;;1.75;;
75990;SDS011;64673;52.276;10.560;2023-04-02T00:31:49;5.82;;;2.25;;
75990;SDS011;64673;52.276;10.560;2023-04-02T00:34:20;4.85;;;1.90;;
75990;SDS011;64673;52.276;10.560;2023-04-02T00:36:54;3.60;;;1.70;;
75990;SDS011;64673;52.276;10.560;2023-04-02T00:39:27;3.80;;;1.83;;
75990;SDS011;64673;52.276;10.560;2023-04-02T00:41:56;4.40;;;2.08;;
75990;SDS011;64673;52.276;10.560;2023-04-02T00:44:30;3.08;;;1.33;;
75990;SDS011;64673;52.276;10.560;2023-04-02T00:47:03;5.20;;;2.28;;
75990;SDS011;64673;52.276;10.560;2023-04-02T00:49:39;3.45;;;1.77;;
75990;SDS011;64673;52.276;10.560;2023-04-02T00:52:09;2.80;;;1.20;;
75990;SDS011;64673;52.276;10.560;2023-04-02T00:54:40;2.70;;;1.63;;
75990;SDS011;64673;52.276;10.560;2023-04-02T00:57:16;6.10;;;2.00;;
75990;SDS011;64673;52.276;10.560;2023-04-02T00:59:54;4.13;;;1.90;;
75990;SDS011;64673;52.276;10.560;2023-04-02T01:02:39;5.63;;;1.58;;
75990;SDS011;64673;52.276;10.560;2023-04-02T01:15:32;4.38;;;1.48;;
75990;SDS011;64673;52.276;10.560;2023-04-02T01:25:43;2.63;;;1.40;;
75990;SDS011;64673;52.276;10.560;2023-04-02T01:28:18;2.60;;;1.30;;
75990;SDS011;64673;52.276;10.560;2023-04-02T01:30:51;3.88;;;1.33;;
75990;SDS011;64673;52.276;10.560;2023-04-02T01:33:22;4.18;;;1.50;;
75990;SDS011;64673;52.276;10.560;2023-04-02T01:35:54;3.33;;;1.48;;
75990;SDS011;64673;52.276;10.560;2023-04-02T01:38:47;5.30;;;1.67;;
75990;SDS011;64673;52.276;10.560;2023-04-02T01:44:23;3.15;;;1.58;;
75990;SDS011;64673;52.276;10.560;2023-04-02T01:46:56;4.15;;;1.20;;
75990;SDS011;64673;52.276;10.560;2023-04-02T01:49:24;3.40;;;1.20;;
75990;SDS011;64673;52.276;10.560;2023-04-02T01:51:52;1.58;;;1.00;;
75990;SDS011;64673;52.276;10.560;2023-04-02T01:54:21;2.85;;;1.02;;
75990;SDS011;64673;52.276;10.560;2023-04-02T01:56:47;3.10;;;0.82;;
75990;SDS011;64673;52.276;10.560;2023-04-02T01:59:18;2.10;;;1.02;;
75990;SDS011;64673;52.276;10.560;2023-04-02T02:02:08;3.97;;;2.00;;
75990;SDS011;64673;52.276;10.560;2023-04-02T02:04:35;3.20;;;1.40;;
75990;SDS011;64673;52.276;10.560;2023-04-02T02:07:01;4.43;;;1.20;;
75990;SDS011;64673;52.276;10.560;2023-04-02T02:09:28;2.92;;;1.20;;
75990;SDS011;64673;52.276;10.560;2023-04-02T02:11:57;5.05;;;1.30;;
75990;SDS011;64673;52.276;10.560;2023-04-02T02:14:24;3.50;;;1.23;;
75990;SDS011;64673;52.276;10.560;2023-04-02T02:16:55;2.17;;;1.02;;
75990;SDS011;64673;52.276;10.560;2023-04-02T02:19:33;2.53;;;1.10;;
75990;SDS011;64673;52.276;10.560;2023-04-02T02:22:11;5.72;;;1.40;;
75990;SDS011;64673;52.276;10.560;2023-04-02T02:24:46;2.00;;;1.05;;
75990;SDS011;64673;52.276;10.560;2023-04-02T02:29:45;4.15;;;1.25;;
75990;SDS011;64673;52.276;10.560;2023-04-02T02:32:15;2.08;;;1.10;;
75990;SDS011;64673;52.276;10.560;2023-04-02T02:34:45;2.45;;;1.20;;
75990;SDS011;64673;52.276;10.560;2023-04-02T02:37:21;1.75;;;0.88;;
75990;SDS011;64673;52.276;10.560;2023-04-02T02:39:52;2.22;;;1.10;;
75990;SDS011;64673;52.276;10.560;2023-04-02T02:44:58;6.47;;;1.52;;
75990;SDS011;64673;52.276;10.560;2023-04-02T02:50:00;2.88;;;0.75;;
75990;SDS011;64673;52.276;10.560;2023-04-02T02:52:30;4.57;;;1.20;;
75990;SDS011;64673;52.276;10.560;2023-04-02T02:55:04;1.77;;;0.80;;
75990;SDS011;64673;52.276;10.560;2023-04-02T02:57:41;3.00;;;0.85;;
75990;SDS011;64673;52.276;10.560;2023-04-02T03:00:12;1.50;;;0.73;;
75990;SDS011;64673;52.276;10.560;2023-04-02T03:02:41;2.85;;;0.73;;
75990;SDS011;64673;52.276;10.560;2023-04-02T03:05:08;2.35;;;1.00;;
75990;SDS011;64673;52.276;10.560;2023-04-02T03:07:40;1.85;;;0.50;;
75990;SDS011;64673;52.276;10.560;2023-04-02T03:10:13;3.30;;;0.90;;
75990;SDS011;64673;52.276;10.560;2023-04-02T03:15:53;1.42;;;0.75;;
75990;SDS011;64673;52.276;10.560;2023-04-02T03:21:31;2.05;;;0.85;;
75990;SDS011;64673;52.276;10.560;2023-04-02T03:24:04;1.85;;;0.73;;
75990;SDS011;64673;52.276;10.560;2023-04-02T03:29:17;1.92;;;0.47;;
75990;SDS011;64673;52.276;10.560;2023-04-02T03:31:52;3.40;;;0.80;;
75990;SDS011;64673;52.276;10.560;2023-04-02T03:34:22;3.22;;;1.00;;
75990;SDS011;64673;52.276;10.560;2023-04-02T03:39:36;3.03;;;0.70;;
75990;SDS011;64673;52.276;10.560;2023-04-02T03:44:53;1.40;;;0.90;;
75990;SDS011;64673;52.276;10.560;2023-04-02T03:50:12;2.08;;;0.47;;
75990;SDS011;64673;52.276;10.560;2023-04-02T03:52:45;2.65;;;0.80;;
75990;SDS011;64673;52.276;10.560;2023-04-02T03:55:14;2.30;;;0.75;;
75990;SDS011;64673;52.276;10.560;2023-04-02T04:00:32;1.65;;;0.77;;
75990;SDS011;64673;52.276;10.560;2023-04-02T04:03:09;1.92;;;0.70;;
75990;SDS011;64673;52.276;10.560;2023-04-02T04:05:48;5.60;;;1.58;;
75990;SDS011;64673;52.276;10.560;2023-04-02T04:08:24;3.63;;;0.85;;
75990;SDS011;64673;52.276;10.560;2023-04-02T04:10:58;1.90;;;0.60;;
75990;SDS011;64673;52.276;10.560;2023-04-02T04:13:33;2.22;;;0.60;;
75990;SDS011;64673;52.276;10.560;2023-04-02T04:16:08;3.13;;;0.70;;
75990;SDS011;64673;52.276;10.560;2023-04-02T04:21:29;2.97;;;0.77;;
75990;SDS011;64673;52.276;10.560;2023-04-02T04:23:56;4.63;;;0.63;;
75990;SDS011;64673;52.276;10.560;2023-04-02T04:26:34;0.98;;;0.65;;
75990;SDS011;64673;52.276;10.560;2023-04-02T04:29:09;2.58;;;1.30;;
75990;SDS011;64673;52.276;10.560;2023-04-02T04:31:44;3.55;;;0.70;;
75990;SDS011;64673;52.276;10.560;2023-04-02T04:34:18;2.67;;;0.70;;
75990;SDS011;64673;52.276;10.560;2023-04-02T04:36:52;2.38;;;1.08;;
75990;SDS011;64673;52.276;10.560;2023-04-02T04:39:41;1.80;;;0.73;;
75990;SDS011;64673;52.276;10.560;2023-04-02T04:42:11;1.15;;;0.57;;
75990;SDS011;64673;52.276;10.560;2023-04-02T04:44:51;1.35;;;0.50;;
75990;SDS011;64673;52.276;10.560;2023-04-02T04:47:55;3.20;;;0.80;;
75990;SDS011;64673;52.276;10.560;2023-04-02T04:53:19;3.53;;;0.90;;
75990;SDS011;64673;52.276;10.560;2023-04-02T04:55:46;2.67;;;0.60;;
75990;SDS011;64673;52.276;10.560;2023-04-02T04:58:40;2.35;;;0.57;;
75990;SDS011;64673;52.276;10.560;2023-04-02T05:01:14;2.20;;;0.60;;
75990;SDS011;64673;52.276;10.560;2023-04-02T05:06:47;2.50;;;0.70;;
75990;SDS011;64673;52.276;10.560;2023-04-02T05:12:04;5.72;;;0.90;;
75990;SDS011;64673;52.276;10.560;2023-04-02T05:14:45;2.65;;;0.95;;
75990;SDS011;64673;52.276;10.560;2023-04-02T05:17:16;2.85;;;1.15;;
75990;SDS011;64673;52.276;10.560;2023-04-02T05:19:53;2.97;;;0.77;;
75990;SDS011;64673;52.276;10.560;2023-04-02T05:22:33;2.40;;;0.80;;
75990;SDS011;64673;52.276;10.560;2023-04-02T05:25:22;1.95;;;0.60;;
75990;SDS011;64673;52.276;10.560;2023-04-02T05:33:02;4.03;;;1.33;;
75990;SDS011;64673;52.276;10.560;2023-04-02T05:35:33;2.35;;;0.77;;
75990;SDS011;64673;52.276;10.560;2023-04-02T05:38:01;2.55;;;0.95;;
75990;SDS011;64673;52.276;10.560;2023-04-02T05:40:30;2.60;;;0.70;;
75990;SDS011;64673;52.276;10.560;2023-04-02T05:43:02;2.42;;;0.60;;
75990;SDS011;64673;52.276;10.560;2023-04-02T05:45:34;3.08;;;0.85;;
75990;SDS011;64673;52.276;10.560;2023-04-02T05:48:04;2.05;;;0.60;;
75990;SDS011;64673;52.276;10.560;2023-04-02T05:50:49;2.00;;;0.90;;
75990;SDS011;64673;52.276;10.560;2023-04-02T05:56:05;2.78;;;0.88;;
75990;SDS011;64673;52.276;10.560;2023-04-02T05:58:39;3.33;;;0.80;;
75990;SDS011;64673;52.276;10.560;2023-04-02T06:01:22;3.95;;;0.82;;
75990;SDS011;64673;52.276;10.560;2023-04-02T06:04:17;2.78;;;1.00;;
75990;SDS011;64673;52.276;10.560;2023-04-02T06:06:45;1.40;;;0.47;;
75990;SDS011;64673;52.276;10.560;2023-04-02T06:12:07;2.00;;;0.85;;
75990;SDS011;64673;52.276;10.560;2023-04-02T06:14:40;3.47;;;0.80;;
75990;SDS011;64673;52.276;10.560;2023-04-02T06:17:07;1.25;;;0.70;;
75990;SDS011;64673;52.276;10.560;2023-04-02T06:19:37;2.72;;;1.00;;
75990;SDS011;64673;52.276;10.560;2023-04-02T06:22:07;0.80;;;0.43;;
75990;SDS011;64673;52.276;10.560;2023-04-02T06:24:42;1.52;;;0.60;;
75990;SDS011;64673;52.276;10.560;2023-04-02T06:27:13;1.23;;;0.73;;
75990;SDS011;64673;52.276;10.560;2023-04-02T06:29:44;4.18;;;0.90;;
75990;SDS011;64673;52.276;10.560;2023-04-02T06:32:15;4.43;;;0.88;;
75990;SDS011;64673;52.276;10.560;2023-04-02T06:34:43;1.35;;;0.85;;
75990;SDS011;64673;52.276;10.560;2023-04-02T06:37:20;2.47;;;0.77;;
75990;SDS011;64673;52.276;10.560;2023-04-02T06:39:46;1.25;;;0.73;;
75990;SDS011;64673;52.276;10.560;2023-04-02T06:42:18;1.77;;;0.68;;
75990;SDS011;64673;52.276;10.560;2023-04-02T06:44:47;2.33;;;0.60;;
75990;SDS011;64673;52.276;10.560;2023-04-02T06:49:56;2.13;;;0.73;;
75990;SDS011;64673;52.276;10.560;2023-04-02T06:52:50;2.58;;;0.80;;
75990;SDS011;64673;52.276;10.560;2023-04-02T06:58:07;2.28;;;0.50;;
75990;SDS011;64673;52.276;10.560;2023-04-02T07:00:40;2.85;;;0.60;;
75990;SDS011;64673;52.276;10.560;2023-04-02T07:05:38;1.10;;;0.50;;
75990;SDS011;64673;52.276;10.560;2023-04-02T07:08:04;1.92;;;0.80;;
75990;SDS011;64673;52.276;10.560;2023-04-02T07:10:29;5.22;;;1.10;;
75990;SDS011;64673;52.276;10.560;2023-04-02T07:12:55;2.25;;;0.90;;
75990;SDS011;64673;52.276;10.560;2023-04-02T07:15:20;2.53;;;1.08;;
75990;SDS011;64673;52.276;10.560;2023-04-02T07:17:48;3.05;;;0.80;;
75990;SDS011;64673;52.276;10.560;2023-04-02T07:20:23;1.70;;;0.85;;
75990;SDS011;64673;52.276;10.560;2023-04-02T07:22:57;3.00;;;0.90;;
75990;SDS011;64673;52.276;10.560;2023-04-02T07:25:22;1.70;;;0.80;;
75990;SDS011;64673;52.276;10.560;2023-04-02T07:27:49;1.45;;;0.68;;
75990;SDS011;64673;52.276;10.560;2023-04-02T07:30:15;5.45;;;1.25;;
75990;SDS011;64673;52.276;10.560;2023-04-02T07:32:41;2.35;;;1.00;;
75990;SDS011;64673;52.276;10.560;2023-04-02T07:35:06;2.05;;;1.10;;
75990;SDS011;64673;52.276;10.560;2023-04-02T07:37:32;3.38;;;0.80;;
75990;SDS011;64673;52.276;10.560;2023-04-02T07:39:57;1.23;;;0.68;;
75990;SDS011;64673;52.276;10.560;2023-04-02T07:42:23;4.10;;;1.08;;
75990;SDS011;64673;52.276;10.560;2023-04-02T07:44:48;3.20;;;0.90;;
75990;SDS011;64673;52.276;10.560;2023-04-02T07:47:15;1.60;;;0.82;;
75990;SDS011;64673;52.276;10.560;2023-04-02T07:49:42;2.45;;;0.40;;
75990;SDS011;64673;52.276;10.560;2023-04-02T07:52:07;2.38;;;0.80;;
75990;SDS011;64673;52.276;10.560;2023-04-02T07:54:32;1.52;;;0.70;;
75990;SDS011;64673;52.276;10.560;2023-04-02T07:56:58;2.20;;;0.88;;
75990;SDS011;64673;52.276;10.560;2023-04-02T07:59:23;1.50;;;0.70;;
75990;SDS011;64673;52.276;10.560;2023-04-02T08:01:50;1.17;;;0.77;;
75990;SDS011;64673;52.276;10.560;2023-04-02T08:04:17;2.45;;;0.75;;
75990;SDS011;64673;52.276;10.560;2023-04-02T08:06:44;2.20;;;0.80;;
75990;SDS011;64673;52.276;10.560;2023-04-02T08:09:11;4.35;;;0.93;;
75990;SDS011;64673;52.276;10.560;2023-04-02T08:11:37;2.40;;;0.70;;
75990;SDS011;64673;52.276;10.560;2023-04-02T08:14:02;1.27;;;0.85;;
75990;SDS011;64673;52.276;10.560;2023-04-02T08:16:41;2.05;;;0.68;;
75990;SDS011;64673;52.276;10.560;2023-04-02T08:19:10;1.92;;;0.68;;
75990;SDS011;64673;52.276;10.560;2023-04-02T08:21:36;3.47;;;0.93;;
75990;SDS011;64673;52.276;10.560;2023-04-02T08:24:01;4.15;;;1.00;;
75990;SDS011;64673;52.276;10.560;2023-04-02T08:26:28;4.53;;;0.85;;
75990;SDS011;64673;52.276;10.560;2023-04-02T08:28:53;1.73;;;0.57;;
75990;SDS011;64673;52.276;10.560;2023-04-02T08:31:18;2.60;;;0.70;;
75990;SDS011;64673;52.276;10.560;2023-04-02T08:33:44;2.88;;;0.70;;
75990;SDS011;64673;52.276;10.560;2023-04-02T08:36:15;1.25;;;0.82;;
75990;SDS011;64673;52.276;10.560;2023-04-02T08:38:42;1.00;;;0.63;;
75990;SDS011;64673;52.276;10.560;2023-04-02T08:41:08;1.15;;;0.40;;
75990;SDS011;64673;52.276;10.560;2023-04-02T08:46:41;5.60;;;0.98;;
75990;SDS011;64673;52.276;10.560;2023-04-02T08:49:15;1.90;;;1.00;;
75990;SDS011;64673;52.276;10.560;2023-04-02T08:51:47;1.95;;;0.63;;
75990;SDS011;64673;52.276;10.560;2023-04-02T08:59:42;1.52;;;0.50;;
75990;SDS011;64673;52.276;10.560;2023-04-02T09:04:37;8.27;;;1.02;;
75990;SDS011;64673;52.276;10.560;2023-04-02T09:07:05;3.38;;;0.70;;
75990;SDS011;64673;52.276;10.560;2023-04-02T09:09:31;1.20;;;0.50;;
75990;SDS011;64673;52.276;10.560;2023-04-02T09:12:01;2.92;;;1.02;;
75990;SDS011;64673;52.276;10.560;2023-04-02T09:17:02;4.00;;;0.60;;
75990;SDS011;64673;52.276;10.560;2023-04-02T09:19:32;2.92;;;0.63;;
75990;SDS011;64673;52.276;10.560;2023-04-02T09:22:06;1.85;;;0.68;;
75990;SDS011;64673;52.276;10.560;2023-04-02T09:24:58;3.47;;;0.68;;
75990;SDS011;64673;52.276;10.560;2023-04-02T09:27:27;1.35;;;0.70;;
75990;SDS011;64673;52.276;10.560;2023-04-02T09:32:53;4.05;;;1.00;;
75990;SDS011;64673;52.276;10.560;2023-04-02T09:35:22;0.90;;;0.63;;
75990;SDS011;64673;52.276;10.560;2023-04-02T09:38:14;1.20;;;0.50;;
75990;SDS011;64673;52.276;10.560;2023-04-02T09:43:27;4.93;;;1.10;;
75990;SDS011;64673;52.276;10.560;2023-04-02T09:46:05;4.47;;;0.80;;
75990;SDS011;64673;52.276;10.560;2023-04-02T09:48:54;0.65;;;0.50;;
75990;SDS011;64673;52.276;10.560;2023-04-02T09:51:26;2.90;;;0.70;;
75990;SDS011;64673;52.276;10.560;2023-04-02T09:56:27;3.22;;;0.75;;
75990;SDS011;64673;52.276;10.560;2023-04-02T10:01:32;1.30;;;0.60;;
75990;SDS011;64673;52.276;10.560;2023-04-02T10:03:59;6.28;;;0.75;;
75990;SDS011;64673;52.276;10.560;2023-04-02T10:06:27;2.88;;;0.60;;
75990;SDS011;64673;52.276;10.560;2023-04-02T10:08:54;1.85;;;0.70;;
75990;SDS011;64673;52.276;10.560;2023-04-02T10:11:25;2.35;;;0.63;;
75990;SDS011;64673;52.276;10.560;2023-04-02T10:13:55;1.50;;;0.70;;
75990;SDS011;64673;52.276;10.560;2023-04-02T10:16:23;3.03;;;0.50;;
75990;SDS011;64673;52.276;10.560;2023-04-02T10:18:57;1.20;;;0.63;;
75990;SDS011;64673;52.276;10.560;2023-04-02T10:21:30;2.40;;;0.80;;
75990;SDS011;64673;52.276;10.560;2023-04-02T10:23:58;3.10;;;0.65;;
75990;SDS011;64673;52.276;10.560;2023-04-02T10:34:55;1.30;;;0.55;;
75990;SDS011;64673;52.276;10.560;2023-04-02T10:40:10;2.25;;;0.77;;
75990;SDS011;64673;52.276;10.560;2023-04-02T10:42:58;4.70;;;0.80;;
75990;SDS011;64673;52.276;10.560;2023-04-02T10:45:34;2.38;;;0.73;;
75990;SDS011;64673;52.276;10.560;2023-04-02T10:53:19;3.53;;;0.98;;
75990;SDS011;64673;52.276;10.560;2023-04-02T10:55:58;1.27;;;0.50;;
75990;SDS011;64673;52.276;10.560;2023-04-02T10:58:29;3.28;;;0.90;;
75990;SDS011;64673;52.276;10.560;2023-04-02T11:01:06;2.30;;;0.82;;
75990;SDS011;64673;52.276;10.560;2023-04-02T11:03:44;2.40;;;0.70;;
75990;SDS011;64673;52.276;10.560;2023-04-02T11:06:17;1.50;;;0.60;;
75990;SDS011;64673;52.276;10.560;2023-04-02T11:08:47;2.85;;;0.98;;
75990;SDS011;64673;52.276;10.560;2023-04-02T11:11:17;1.73;;;0.65;;
75990;SDS011;64673;52.276;10.560;2023-04-02T11:16:23;1.73;;;0.70;;
75990;SDS011;64673;52.276;10.560;2023-04-02T11:21:42;3.75;;;0.80;;
75990;SDS011;64673;52.276;10.560;2023-04-02T11:29:39;1.20;;;0.40;;
75990;SDS011;64673;52.276;10.560;2023-04-02T11:42:47;2.17;;;0.50;;
75990;SDS011;64673;52.276;10.560;2023-04-02T11:53:04;1.40;;;0.80;;
75990;SDS011;64673;52.276;10.560;2023-04-02T11:55:44;2.65;;;0.70;;
75990;SDS011;64673;52.276;10.560;2023-04-02T11:58:32;1.13;;;0.40;;
75990;SDS011;64673;52.276;10.560;2023-04-02T12:14:53;2.95;;;1.05;;
75990;SDS011;64673;52.276;10.560;2023-04-02T12:17:23;2.38;;;0.50;;
75990;SDS011;64673;52.276;10.560;2023-04-02T12:19:54;0.93;;;0.40;;
75990;SDS011;64673;52.276;10.560;2023-04-02T12:22:29;1.17;;;0.45;;
75990;SDS011;64673;52.276;10.560;2023-04-02T12:27:26;1.45;;;0.50;;
75990;SDS011;64673;52.276;10.560;2023-04-02T12:34:52;2.22;;;0.30;;
75990;SDS011;64673;52.276;10.560;2023-04-02T12:37:22;3.47;;;0.55;;
75990;SDS011;64673;52.276;10.560;2023-04-02T12:39:53;1.45;;;0.50;;
75990;SDS011;64673;52.276;10.560;2023-04-02T12:42:28;2.15;;;0.52;;
75990;SDS011;64673;52.276;10.560;2023-04-02T12:44:58;2.47;;;0.50;;
75990;SDS011;64673;52.276;10.560;2023-04-02T12:47:24;2.70;;;0.30;;
75990;SDS011;64673;52.276;10.560;2023-04-02T12:49:50;2.60;;;0.45;;
75990;SDS011;64673;52.276;10.560;2023-04-02T12:52:18;1.08;;;0.40;;
75990;SDS011;64673;52.276;10.560;2023-04-02T12:54:49;2.50;;;0.50;;
75990;SDS011;64673;52.276;10.560;2023-04-02T12:59:54;1.40;;;0.40;;
75990;SDS011;64673;52.276;10.560;2023-04-02T13:02:21;0.55;;;0.20;;
75990;SDS011;64673;52.276;10.560;2023-04-02T13:04:49;0.50;;;0.32;;
75990;SDS011;64673;52.276;10.560;2023-04-02T13:07:16;1.38;;;0.47;;
75990;SDS011;64673;52.276;10.560;2023-04-02T13:09:47;1.45;;;0.50;;
75990;SDS011;64673;52.276;10.560;2023-04-02T13:15:07;2.60;;;0.40;;
75990;SDS011;64673;52.276;10.560;2023-04-02T13:17:45;0.90;;;0.38;;
75990;SDS011;64673;52.276;10.560;2023-04-02T13:22:56;1.45;;;0.50;;
75990;SDS011;64673;52.276;10.560;2023-04-02T13:25:26;0.98;;;0.60;;
75990;SDS011;64673;52.276;10.560;2023-04-02T13:27:56;2.90;;;0.40;;
75990;SDS011;64673;52.276;10.560;2023-04-02T13:30:23;1.17;;;0.40;;
75990;SDS011;64673;52.276;10.560;2023-04-02T13:32:50;5.38;;;1.05;;
75990;SDS011;64673;52.276;10.560;2023-04-02T13:35:16;1.00;;;0.35;;
75990;SDS011;64673;52.276;10.560;2023-04-02T13:37:42;1.67;;;0.30;;
75990;SDS011;64673;52.276;10.560;2023-04-02T13:40:11;0.60;;;0.28;;
75990;SDS011;64673;52.276;10.560;2023-04-02T13:42:38;1.38;;;0.20;;
75990;SDS011;64673;52.276;10.560;2023-04-02T13:45:04;1.00;;;0.50;;
75990;SDS011;64673;52.276;10.560;2023-04-02T13:47:38;1.73;;;0.40;;
75990;SDS011;64673;52.276;10.560;2023-04-02T13:50:03;1.88;;;0.65;;
75990;SDS011;64673;52.276;10.560;2023-04-02T13:52:29;0.63;;;0.60;;
75990;SDS011;64673;52.276;10.560;2023-04-02T13:54:55;1.80;;;0.40;;
75990;SDS011;64673;52.276;10.560;2023-04-02T13:57:25;1.38;;;0.40;;
75990;SDS011;64673;52.276;10.560;2023-04-02T13:59:50;1.10;;;0.50;;
75990;SDS011;64673;52.276;10.560;2023-04-02T14:02:19;1.75;;;0.50;;
75990;SDS011;64673;52.276;10.560;2023-04-02T14:04:51;2.55;;;1.15;;
75990;SDS011;64673;52.276;10.560;2023-04-02T14:07:44;1.27;;;0.32;;
75990;SDS011;64673;52.276;10.560;2023-04-02T14:29:55;1.92;;;0.60;;
75990;SDS011;64673;52.276;10.560;2023-04-02T14:43:28;2.53;;;0.60;;
75990;SDS011;64673;52.276;10.560;2023-04-02T14:46:01;4.05;;;0.40;;
75990;SDS011;64673;52.276;10.560;2023-04-02T14:48:49;3.15;;;0.50;;
75990;SDS011;64673;52.276;10.560;2023-04-02T14:51:35;0.80;;;0.30;;
75990;SDS011;64673;52.276;10.560;2023-04-02T14:54:21;1.35;;;0.52;;
75990;SDS011;64673;52.276;10.560;2023-04-02T15:05:08;1.75;;;0.50;;
75990;SDS011;64673;52.276;10.560;2023-04-02T15:07:48;2.25;;;0.40;;
75990;SDS011;64673;52.276;10.560;2023-04-02T15:10:38;1.17;;;0.40;;
75990;SDS011;64673;52.276;10.560;2023-04-02T15:13:15;1.48;;;0.40;;
75990;SDS011;64673;52.276;10.560;2023-04-02T15:15:45;4.68;;;0.88;;
75990;SDS011;64673;52.276;10.560;2023-04-02T15:18:18;2.88;;;0.50;;
75990;SDS011;64673;52.276;10.560;2023-04-02T15:23:50;3.45;;;0.50;;
75990;SDS011;64673;52.276;10.560;2023-04-02T15:29:05;3.35;;;0.55;;
75990;SDS011;64673;52.276;10.560;2023-04-02T15:31:37;2.05;;;0.52;;
75990;SDS011;64673;52.276;10.560;2023-04-02T15:34:17;2.47;;;0.50;;
75990;SDS011;64673;52.276;10.560;2023-04-02T15:37:36;2.25;;;0.70;;
75990;SDS011;64673;52.276;10.560;2023-04-02T15:40:02;2.00;;;0.68;;
75990;SDS011;64673;52.276;10.560;2023-04-02T15:42:41;3.28;;;0.68;;
75990;SDS011;64673;52.276;10.560;2023-04-02T15:53:10;2.05;;;0.70;;
75990;SDS011;64673;52.276;10.560;2023-04-02T15:58:42;1.50;;;0.88;;
75990;SDS011;64673;52.276;10.560;2023-04-02T16:01:22;1.05;;;0.52;;
75990;SDS011;64673;52.276;10.560;2023-04-02T16:12:17;3.95;;;1.10;;
75990;SDS011;64673;52.276;10.560;2023-04-02T16:14:45;2.67;;;0.98;;
75990;SDS011;64673;52.276;10.560;2023-04-02T16:17:33;1.83;;;0.65;;
75990;SDS011;64673;52.276;10.560;2023-04-02T16:20:13;3.45;;;0.52;;
75990;SDS011;64673;52.276;10.560;2023-04-02T16:22:45;1.65;;;0.65;;
75990;SDS011;64673;52.276;10.560;2023-04-02T16:25:17;3.05;;;0.88;;
75990;SDS011;64673;52.276;10.560;2023-04-02T16:28:30;3.22;;;0.50;;
75990;SDS011;64673;52.276;10.560;2023-04-02T16:50:02;1.57;;;0.50;;
75990;SDS011;64673;52.276;10.560;2023-04-02T17:00:55;2.53;;;0.70;;
75990;SDS011;64673;52.276;10.560;2023-04-02T17:09:15;2.85;;;0.68;;
75990;SDS011;64673;52.276;10.560;2023-04-02T17:11:51;2.92;;;0.63;;
75990;SDS011;64673;52.276;10.560;2023-04-02T17:16:55;4.15;;;0.90;;
75990;SDS011;64673;52.276;10.560;2023-04-02T17:19:25;2.78;;;0.60;;
75990;SDS011;64673;52.276;10.560;2023-04-02T17:21:54;1.52;;;0.60;;
75990;SDS011;64673;52.276;10.560;2023-04-02T17:24:30;4.18;;;1.00;;
75990;SDS011;64673;52.276;10.560;2023-04-02T17:29:42;3.10;;;1.25;;
75990;SDS011;64673;52.276;10.560;2023-04-02T17:32:16;2.88;;;0.60;;
75990;SDS011;64673;52.276;10.560;2023-04-02T17:34:46;2.33;;;0.70;;
75990;SDS011;64673;52.276;10.560;2023-04-02T17:45:16;1.75;;;0.60;;
75990;SDS011;64673;52.276;10.560;2023-04-02T17:47:53;2.00;;;0.85;;
75990;SDS011;64673;52.276;10.560;2023-04-02T17:56:30;1.17;;;0.60;;
75990;SDS011;64673;52.276;10.560;2023-04-02T18:01:48;1.15;;;0.40;;
75990;SDS011;64673;52.276;10.560;2023-04-02T18:04:26;1.33;;;0.50;;
75990;SDS011;64673;52.276;10.560;2023-04-02T18:10:12;2.15;;;0.45;;
75990;SDS011;64673;52.276;10.560;2023-04-02T18:12:54;3.17;;;1.02;;
75990;SDS011;64673;52.276;10.560;2023-04-02T18:15:38;2.55;;;0.68;;
75990;SDS011;64673;52.276;10.560;2023-04-02T18:26:51;3.53;;;0.80;;
75990;SDS011;64673;52.276;10.560;2023-04-02T18:29:45;2.90;;;0.63;;
75990;SDS011;64673;52.276;10.560;2023-04-02T18:35:44;3.20;;;0.60;;
75990;SDS011;64673;52.276;10.560;2023-04-02T18:51:57;3.17;;;0.98;;
75990;SDS011;64673;52.276;10.560;2023-04-02T18:54:33;4.22;;;1.42;;
75990;SDS011;64673;52.276;10.560;2023-04-02T18:57:08;1.60;;;0.85;;
75990;SDS011;64673;52.276;10.560;2023-04-02T18:59:41;1.52;;;0.85;;
75990;SDS011;64673;52.276;10.560;2023-04-02T19:05:07;4.68;;;0.70;;
75990;SDS011;64673;52.276;10.560;2023-04-02T19:07:59;2.42;;;1.08;;
75990;SDS011;64673;52.276;10.560;2023-04-02T19:10:32;3.50;;;0.98;;
75990;SDS011;64673;52.276;10.560;2023-04-02T19:12:59;1.75;;;0.80;;
75990;SDS011;64673;52.276;10.560;2023-04-02T19:15:31;4.43;;;1.67;;
75990;SDS011;64673;52.276;10.560;2023-04-02T19:18:07;3.08;;;1.00;;
75990;SDS011;64673;52.276;10.560;2023-04-02T19:20:49;4.20;;;0.90;;
75990;SDS011;64673;52.276;10.560;2023-04-02T19:26:23;5.40;;;1.13;;
75990;SDS011;64673;52.276;10.560;2023-04-02T19:29:00;1.55;;;0.75;;
75990;SDS011;64673;52.276;10.560;2023-04-02T19:31:53;2.47;;;1.08;;
75990;SDS011;64673;52.276;10.560;2023-04-02T19:39:51;4.68;;;1.00;;
75990;SDS011;64673;52.276;10.560;2023-04-02T19:45:32;4.35;;;1.33;;
75990;SDS011;64673;52.276;10.560;2023-04-02T19:48:07;5.22;;;1.30;;
75990;SDS011;64673;52.276;10.560;2023-04-02T19:50:36;5.20;;;1.65;;
75990;SDS011;64673;52.276;10.560;2023-04-02T19:53:02;2.80;;;0.80;;
75990;SDS011;64673;52.276;10.560;2023-04-02T19:55:27;12.52;;;3.08;;
75990;SDS011;64673;52.276;10.560;2023-04-02T19:57:52;8.88;;;2.67;;
75990;SDS011;64673;52.276;10.560;2023-04-02T20:00:18;4.60;;;1.15;;
75990;SDS011;64673;52.276;10.560;2023-04-02T20:02:44;4.05;;;0.80;;
75990;SDS011;64673;52.276;10.560;2023-04-02T20:05:09;3.70;;;1.33;;
75990;SDS011;64673;52.276;10.560;2023-04-02T20:07:35;2.67;;;0.70;;
75990;SDS011;64673;52.276;10.560;2023-04-02T20:10:00;1.95;;;0.57;;
75990;SDS011;64673;52.276;10.560;2023-04-02T20:12:26;1.83;;;0.82;;
75990;SDS011;64673;52.276;10.560;2023-04-02T20:14:51;2.70;;;0.70;;
75990;SDS011;64673;52.276;10.560;2023-04-02T20:17:16;1.30;;;0.60;;
75990;SDS011;64673;52.276;10.560;2023-04-02T20:19:42;1.95;;;0.50;;
75990;SDS011;64673;52.276;10.560;2023-04-02T20:22:07;2.85;;;0.93;;
75990;SDS011;64673;52.276;10.560;2023-04-02T20:24:33;3.00;;;0.82;;
75990;SDS011;64673;52.276;10.560;2023-04-02T20:26:58;1.98;;;0.75;;
75990;SDS011;64673;52.276;10.560;2023-04-02T20:29:23;1.60;;;0.65;;
75990;SDS011;64673;52.276;10.560;2023-04-02T20:31:52;4.65;;;0.60;;
75990;SDS011;64673;52.276;10.560;2023-04-02T20:34:17;1.95;;;0.70;;
75990;SDS011;64673;52.276;10.560;2023-04-02T20:36:42;4.45;;;0.70;;
75990;SDS011;64673;52.276;10.560;2023-04-02T20:39:09;3.15;;;0.77;;
75990;SDS011;64673;52.276;10.560;2023-04-02T20:41:35;2.80;;;0.85;;
75990;SDS011;64673;52.276;10.560;2023-04-02T20:44:01;2.38;;;0.68;;
75990;SDS011;64673;52.276;10.560;2023-04-02T20:46:26;3.20;;;0.75;;